createdAt,value
2022-12-07T00:02:15.379Z,15.93
2022-12-07T00:04:44.036Z,17.98
2022-12-07T00:07:14.480Z,15.23
2022-12-07T00:09:44.036Z,15.40
2022-12-07T00:12:11.762Z,18.52
2022-12-07T00:17:07.334Z,17.73
2022-12-07T00:19:35.074Z,17.63
2022-12-07T00:22:02.888Z,16.08
2022-12-07T00:26:59.506Z,15.52
2022-12-07T00:29:27.325Z,16.75
2022-12-07T00:31:57.517Z,15.73
2022-12-07T00:34:25.314Z,16.85
2022-12-07T00:36:53.159Z,16.90
2022-12-07T00:41:48.716Z,15.80
2022-12-07T00:44:17.860Z,17.50
2022-12-07T00:46:47.002Z,16.13
2022-12-07T00:49:14.796Z,18.17
2022-12-07T00:54:10.319Z,17.90
2022-12-07T00:56:38.150Z,18.40
2022-12-07T00:59:06.276Z,17.80
2022-12-07T01:01:36.748Z,18.15
2022-12-07T01:04:05.149Z,18.35
2022-12-07T01:06:33.529Z,18.48
2022-12-07T01:09:01.496Z,20.23
2022-12-07T01:11:30.694Z,20.50
2022-12-07T01:13:59.909Z,21.48
2022-12-07T01:16:28.635Z,21.30
2022-12-07T01:18:58.445Z,22.60
2022-12-07T01:21:27.116Z,20.98
2022-12-07T01:23:54.939Z,21.70
2022-12-07T01:26:36.319Z,19.80
2022-12-07T01:29:24.424Z,19.67
2022-12-07T01:31:52.450Z,19.20
2022-12-07T01:37:02.056Z,20.15
2022-12-07T01:39:29.767Z,20.35
2022-12-07T01:41:57.758Z,22.05
2022-12-07T01:44:26.180Z,23.27
2022-12-07T01:46:55.568Z,24.75
2022-12-07T01:49:26.255Z,25.20
2022-12-07T01:51:56.554Z,25.63
2022-12-07T01:54:27.066Z,24.80
2022-12-07T01:56:56.984Z,24.10
2022-12-07T01:59:26.953Z,25.33
2022-12-07T02:01:55.225Z,25.75
2022-12-07T02:04:23.982Z,25.70
2022-12-07T02:06:52.721Z,25.42
2022-12-07T02:09:20.575Z,26.05
2022-12-07T02:11:51.704Z,25.90
2022-12-07T02:14:19.599Z,25.25
2022-12-07T02:16:52.121Z,26.45
2022-12-07T02:19:40.885Z,25.75
2022-12-07T02:22:19.387Z,24.65
2022-12-07T02:24:53.912Z,24.10
2022-12-07T02:27:39.094Z,25.40
2022-12-07T02:30:09.217Z,28.38
2022-12-07T02:32:42.508Z,22.83
2022-12-07T02:35:12.825Z,21.95
2022-12-07T02:37:43.247Z,24.02
2022-12-07T02:40:19.001Z,24.33
2022-12-07T02:42:48.055Z,22.35
2022-12-07T02:45:19.339Z,22.23
2022-12-07T02:47:48.609Z,21.55
2022-12-07T02:50:16.733Z,22.17
2022-12-07T02:52:44.592Z,22.20
2022-12-07T02:55:13.642Z,21.67
2022-12-07T02:57:48.008Z,21.67
2022-12-07T03:00:19.212Z,19.92
2022-12-07T03:02:52.442Z,21.13
2022-12-07T03:05:31.649Z,20.60
2022-12-07T03:10:30.242Z,20.40
2022-12-07T03:13:04.284Z,21.38
2022-12-07T03:15:35.746Z,21.13
2022-12-07T03:18:04.897Z,24.98
2022-12-07T03:20:34.824Z,24.90
2022-12-07T03:23:02.907Z,20.42
2022-12-07T03:25:31.181Z,19.52
2022-12-07T03:28:00.112Z,19.85
2022-12-07T03:30:30.837Z,18.52
2022-12-07T03:33:02.051Z,19.38
2022-12-07T03:35:33.379Z,19.00
2022-12-07T03:38:02.475Z,18.63
2022-12-07T03:40:32.833Z,18.85
2022-12-07T03:43:02.681Z,19.30
2022-12-07T03:45:34.164Z,18.90
2022-12-07T03:48:06.100Z,17.90
2022-12-07T03:50:39.183Z,17.83
2022-12-07T03:53:11.079Z,17.77
2022-12-07T03:55:41.280Z,17.50
2022-12-07T03:58:13.061Z,17.20
2022-12-07T04:00:40.884Z,17.85
2022-12-07T04:03:10.119Z,17.90
2022-12-07T04:05:38.091Z,17.73
2022-12-07T04:08:06.287Z,18.02
2022-12-07T04:10:34.184Z,17.73
2022-12-07T04:13:01.924Z,26.65
2022-12-07T04:17:58.031Z,19.10
2022-12-07T04:20:27.202Z,19.48
2022-12-07T04:22:54.934Z,21.10
2022-12-07T04:27:50.285Z,23.08
2022-12-07T04:32:45.681Z,23.10
2022-12-07T04:37:43.011Z,27.98
2022-12-07T04:40:12.333Z,26.67
2022-12-07T04:42:40.291Z,21.70
2022-12-07T04:45:09.016Z,24.35
2022-12-07T04:47:37.341Z,21.20
2022-12-07T04:50:05.824Z,21.95
2022-12-07T04:52:33.849Z,22.20
2022-12-07T04:55:03.195Z,22.90
2022-12-07T04:57:31.005Z,20.38
2022-12-07T04:59:59.031Z,21.58
2022-12-07T05:02:27.214Z,18.08
2022-12-07T05:04:54.976Z,19.15
2022-12-07T05:09:50.272Z,28.48
2022-12-07T05:14:47.151Z,19.13
2022-12-07T05:17:15.311Z,17.63
2022-12-07T05:19:43.102Z,17.42
2022-12-07T05:22:11.624Z,18.05
2022-12-07T05:24:41.750Z,17.92
2022-12-07T05:27:09.669Z,17.60
2022-12-07T05:29:37.448Z,22.00
2022-12-07T05:32:06.825Z,20.35
2022-12-07T05:34:34.622Z,19.25
2022-12-07T05:39:30.289Z,15.48
2022-12-07T05:42:16.338Z,20.02
2022-12-07T05:44:44.794Z,21.33
2022-12-07T05:47:14.230Z,22.00
2022-12-07T05:49:42.395Z,22.92
2022-12-07T05:52:10.218Z,24.83
2022-12-07T05:54:37.938Z,24.95
2022-12-07T05:59:33.046Z,25.35
2022-12-07T06:02:02.473Z,26.02
2022-12-07T06:04:33.538Z,25.63
2022-12-07T06:07:01.367Z,24.67
2022-12-07T06:09:29.701Z,23.05
2022-12-07T06:12:16.279Z,23.40
2022-12-07T06:14:45.280Z,22.77
2022-12-07T06:17:13.520Z,21.67
2022-12-07T06:19:43.228Z,22.33
2022-12-07T06:22:12.750Z,20.77
2022-12-07T06:24:41.225Z,20.73
2022-12-07T06:27:09.190Z,21.23
2022-12-07T06:29:37.047Z,22.08
2022-12-07T06:32:05.157Z,22.40
2022-12-07T06:34:33.714Z,28.45
2022-12-07T06:37:02.918Z,53.55
2022-12-07T06:39:30.918Z,41.63
2022-12-07T06:41:58.955Z,31.95
2022-12-07T06:44:26.855Z,27.23
2022-12-07T06:47:12.212Z,24.58
2022-12-07T06:49:42.516Z,21.90
2022-12-07T06:52:12.035Z,21.42
2022-12-07T06:54:39.947Z,21.17
2022-12-07T06:57:08.372Z,22.27
2022-12-07T06:59:36.128Z,22.27
2022-12-07T07:02:04.116Z,22.40
2022-12-07T07:04:32.065Z,22.52
2022-12-07T07:07:01.381Z,23.20
2022-12-07T07:09:30.577Z,22.13
2022-12-07T07:11:58.364Z,24.75
2022-12-07T07:14:26.118Z,24.38
2022-12-07T07:16:53.915Z,23.08
2022-12-07T07:19:21.817Z,24.17
2022-12-07T07:21:49.663Z,23.75
2022-12-07T07:24:17.804Z,24.67
2022-12-07T07:26:47.057Z,23.48
2022-12-07T07:29:14.957Z,23.63
2022-12-07T07:31:42.793Z,23.58
2022-12-07T07:34:11.089Z,29.42
2022-12-07T07:36:38.874Z,22.50
2022-12-07T07:39:06.749Z,23.27
2022-12-07T07:41:34.559Z,22.40
2022-12-07T07:44:05.367Z,22.73
2022-12-07T07:46:34.340Z,22.90
2022-12-07T07:49:02.307Z,24.58
2022-12-07T07:51:33.326Z,22.77
2022-12-07T07:54:01.117Z,25.13
2022-12-07T07:56:29.363Z,27.15
2022-12-07T07:58:57.511Z,23.38
2022-12-07T08:01:27.310Z,25.02
2022-12-07T08:03:55.278Z,24.77
2022-12-07T08:06:25.552Z,22.40
2022-12-07T08:08:58.973Z,24.92
2022-12-07T08:11:26.849Z,28.02
2022-12-07T08:13:54.723Z,24.05
2022-12-07T08:16:22.825Z,23.42
2022-12-07T08:18:52.295Z,24.70
2022-12-07T08:21:20.222Z,21.95
2022-12-07T08:23:47.998Z,24.80
2022-12-07T08:26:16.803Z,24.83
2022-12-07T08:28:46.051Z,24.27
2022-12-07T08:31:16.123Z,37.83
2022-12-07T08:33:44.028Z,25.52
2022-12-07T08:36:15.408Z,25.35
2022-12-07T08:39:01.583Z,25.55
2022-12-07T08:41:31.970Z,23.93
2022-12-07T08:43:59.737Z,23.85
2022-12-07T08:46:29.249Z,24.83
2022-12-07T08:48:59.261Z,25.08
2022-12-07T08:51:28.723Z,24.95
2022-12-07T08:53:58.221Z,24.73
2022-12-07T08:56:26.542Z,24.08
2022-12-07T08:58:54.615Z,22.17
2022-12-07T09:01:22.565Z,22.88
2022-12-07T09:03:50.579Z,21.88
2022-12-07T09:06:18.527Z,21.33
2022-12-07T09:08:49.367Z,22.60
2022-12-07T09:11:17.777Z,22.30
2022-12-07T09:13:45.546Z,24.17
2022-12-07T09:16:13.426Z,20.20
2022-12-07T09:18:41.300Z,20.85
2022-12-07T09:23:36.549Z,23.02
2022-12-07T09:28:39.722Z,29.88
2022-12-07T09:31:24.678Z,25.38
2022-12-07T09:33:55.999Z,25.02
2022-12-07T09:36:23.990Z,27.20
2022-12-07T09:38:51.818Z,27.60
2022-12-07T09:41:19.905Z,26.40
2022-12-07T09:43:49.247Z,21.90
2022-12-07T09:46:20.054Z,23.40
2022-12-07T09:48:49.659Z,15.00
2022-12-07T09:51:23.742Z,11.35
2022-12-07T09:53:53.191Z,10.90
2022-12-07T09:56:21.457Z,10.13
2022-12-07T09:58:51.303Z,9.43
2022-12-07T10:01:20.899Z,8.85
2022-12-07T10:03:51.797Z,9.55
2022-12-07T10:06:20.410Z,14.32
2022-12-07T10:08:48.879Z,16.13
2022-12-07T10:11:17.361Z,15.77
2022-12-07T10:13:46.461Z,15.60
2022-12-07T10:16:33.600Z,17.80
2022-12-07T10:19:20.024Z,15.90
2022-12-07T10:22:01.610Z,18.25
2022-12-07T10:24:29.625Z,20.27
2022-12-07T10:26:57.978Z,14.30
2022-12-07T10:29:26.888Z,20.15
2022-12-07T10:31:58.035Z,19.58
2022-12-07T10:34:27.526Z,18.30
2022-12-07T10:36:55.810Z,19.35
2022-12-07T10:39:24.277Z,27.92
2022-12-07T10:41:56.608Z,18.90
2022-12-07T10:44:25.597Z,17.70
2022-12-07T10:47:03.273Z,17.48
2022-12-07T10:49:40.203Z,18.88
2022-12-07T10:52:12.973Z,18.33
2022-12-07T10:54:46.827Z,25.33
2022-12-07T10:57:32.402Z,19.02
2022-12-07T11:00:21.155Z,16.90
2022-12-07T11:03:04.288Z,12.35
2022-12-07T11:05:38.504Z,11.05
2022-12-07T11:08:12.290Z,7.70
2022-12-07T11:10:44.850Z,8.57
2022-12-07T11:13:28.990Z,8.45
2022-12-07T11:16:02.226Z,7.45
2022-12-07T11:18:31.598Z,8.02
2022-12-07T11:21:06.829Z,8.70
2022-12-07T11:23:42.159Z,7.68
2022-12-07T11:26:16.866Z,8.57
2022-12-07T11:28:52.943Z,8.23
2022-12-07T11:31:29.376Z,8.73
2022-12-07T11:34:01.382Z,7.97
2022-12-07T11:36:35.796Z,8.05
2022-12-07T11:39:05.191Z,8.82
2022-12-07T11:41:36.737Z,8.20
2022-12-07T11:44:09.650Z,8.80
2022-12-07T11:46:46.239Z,9.05
2022-12-07T11:49:17.155Z,7.72
2022-12-07T11:51:46.931Z,7.78
2022-12-07T11:54:17.534Z,8.38
2022-12-07T11:56:45.957Z,8.75
2022-12-07T11:59:15.908Z,8.55
2022-12-07T12:01:52.956Z,8.45
2022-12-07T12:04:26.125Z,8.10
2022-12-07T12:06:56.394Z,7.68
2022-12-07T12:09:42.402Z,8.85
2022-12-07T12:15:15.905Z,8.23
2022-12-07T12:20:20.104Z,8.27
2022-12-07T12:22:52.177Z,8.88
2022-12-07T12:25:23.061Z,8.38
2022-12-07T12:27:52.304Z,8.38
2022-12-07T12:30:28.825Z,7.35
2022-12-07T12:33:03.379Z,8.60
2022-12-07T12:35:33.588Z,8.00
2022-12-07T12:38:20.003Z,8.45
2022-12-07T12:40:51.213Z,7.88
2022-12-07T12:43:37.754Z,8.80
2022-12-07T12:46:20.484Z,8.65
2022-12-07T12:48:48.465Z,7.53
2022-12-07T12:51:34.812Z,9.48
2022-12-07T12:54:05.850Z,8.73
2022-12-07T12:56:42.984Z,9.07
2022-12-07T12:59:28.676Z,9.00
2022-12-07T13:01:58.500Z,8.45
2022-12-07T13:04:41.430Z,8.80
2022-12-07T13:07:13.767Z,9.25
2022-12-07T13:09:44.157Z,8.30
2022-12-07T13:12:16.422Z,9.25
2022-12-07T13:14:57.802Z,9.52
2022-12-07T13:17:44.641Z,9.30
2022-12-07T13:20:35.742Z,10.02
2022-12-07T13:23:03.730Z,10.02
2022-12-07T13:25:49.530Z,11.20
2022-12-07T13:28:19.625Z,9.95
2022-12-07T13:30:49.644Z,9.60
2022-12-07T13:33:19.510Z,10.77
2022-12-07T13:35:47.543Z,9.02
2022-12-07T13:38:24.484Z,8.35
2022-12-07T13:41:02.148Z,9.10
2022-12-07T13:43:31.532Z,8.75
2022-12-07T13:46:01.913Z,8.30
2022-12-07T13:48:33.588Z,7.97
2022-12-07T13:51:02.732Z,10.43
2022-12-07T13:53:31.602Z,17.08
2022-12-07T13:56:01.020Z,9.20
2022-12-07T13:58:29.297Z,8.20
2022-12-07T14:00:58.976Z,8.63
2022-12-07T14:03:32.815Z,8.30
2022-12-07T14:06:16.687Z,8.85
2022-12-07T14:08:44.817Z,8.88
2022-12-07T14:11:17.085Z,8.45
2022-12-07T14:13:53.823Z,8.55
2022-12-07T14:16:28.808Z,8.90
2022-12-07T14:18:57.185Z,9.32
2022-12-07T14:21:25.705Z,9.70
2022-12-07T14:24:20.483Z,9.45
2022-12-07T14:26:48.812Z,8.65
2022-12-07T14:29:35.273Z,9.57
2022-12-07T14:32:18.819Z,9.32
2022-12-07T14:34:55.211Z,9.57
2022-12-07T14:37:23.136Z,9.70
2022-12-07T14:39:51.069Z,9.27
2022-12-07T14:42:19.067Z,9.80
2022-12-07T14:44:46.928Z,10.48
2022-12-07T14:50:06.589Z,16.48
2022-12-07T14:55:26.027Z,9.77
2022-12-07T14:57:54.134Z,10.48
2022-12-07T15:00:23.114Z,11.05
2022-12-07T15:02:52.655Z,11.07
2022-12-07T15:05:20.569Z,10.27
2022-12-07T15:07:49.221Z,10.32
2022-12-07T15:10:23.944Z,10.57
2022-12-07T15:12:52.691Z,9.77
2022-12-07T15:17:48.088Z,9.70
2022-12-07T15:20:18.687Z,9.23
2022-12-07T15:22:46.549Z,10.35
2022-12-07T15:25:15.212Z,10.90
2022-12-07T15:27:43.085Z,10.38
2022-12-07T15:30:11.117Z,10.75
2022-12-07T15:32:39.972Z,10.90
2022-12-07T15:35:08.459Z,10.60
2022-12-07T15:37:37.753Z,10.52
2022-12-07T15:40:08.115Z,11.90
2022-12-07T15:42:37.205Z,11.38
2022-12-07T15:45:07.673Z,11.73
2022-12-07T15:47:54.893Z,10.82
2022-12-07T15:52:53.895Z,10.60
2022-12-07T15:55:21.856Z,10.55
2022-12-07T15:57:50.478Z,10.25
2022-12-07T16:00:18.865Z,11.75
2022-12-07T16:02:46.650Z,10.95
2022-12-07T16:05:14.451Z,10.93
2022-12-07T16:07:43.179Z,9.73
2022-12-07T16:10:12.742Z,10.95
2022-12-07T16:12:40.570Z,11.20
2022-12-07T16:15:08.949Z,11.65
2022-12-07T16:17:36.813Z,11.07
2022-12-07T16:20:09.290Z,10.80
2022-12-07T16:22:37.134Z,10.30
2022-12-07T16:25:05.704Z,11.25
2022-12-07T16:27:35.294Z,10.48
2022-12-07T16:30:03.139Z,10.88
2022-12-07T16:32:31.008Z,10.38
2022-12-07T16:34:58.772Z,9.88
2022-12-07T16:39:54.104Z,10.52
2022-12-07T16:42:22.025Z,10.63
2022-12-07T16:44:51.145Z,15.65
2022-12-07T16:47:18.882Z,10.82
2022-12-07T16:52:20.292Z,12.55
2022-12-07T16:54:49.427Z,10.18
2022-12-07T16:57:22.589Z,10.45
2022-12-07T16:59:52.882Z,11.45
2022-12-07T17:02:21.085Z,9.55
2022-12-07T17:04:48.937Z,10.65
2022-12-07T17:07:19.844Z,10.98
2022-12-07T17:09:47.865Z,11.00
2022-12-07T17:12:15.737Z,10.38
2022-12-07T17:15:01.498Z,11.77
2022-12-07T17:17:31.073Z,11.45
2022-12-07T17:19:59.015Z,12.45
2022-12-07T17:22:26.803Z,11.85
2022-12-07T17:24:54.586Z,13.23
2022-12-07T17:27:22.351Z,12.13
2022-12-07T17:29:50.242Z,12.85
2022-12-07T17:32:18.142Z,12.98
2022-12-07T17:34:47.429Z,12.75
2022-12-07T17:37:15.305Z,11.88
2022-12-07T17:42:28.379Z,13.00
2022-12-07T17:44:56.195Z,14.48
2022-12-07T17:47:24.003Z,13.27
2022-12-07T17:49:53.189Z,15.15
2022-12-07T17:52:38.317Z,14.45
2022-12-07T17:55:06.972Z,15.90
2022-12-07T17:57:34.863Z,14.70
2022-12-07T18:00:02.738Z,14.60
2022-12-07T18:02:39.802Z,14.82
2022-12-07T18:05:09.741Z,15.63
2022-12-07T18:07:37.513Z,15.73
2022-12-07T18:10:07.446Z,16.38
2022-12-07T18:12:35.246Z,15.48
2022-12-07T18:15:03.222Z,14.98
2022-12-07T18:17:31.211Z,15.90
2022-12-07T18:20:01.075Z,16.10
2022-12-07T18:22:30.242Z,16.25
2022-12-07T18:24:58.015Z,16.92
2022-12-07T18:29:54.237Z,16.95
2022-12-07T18:32:22.163Z,16.15
2022-12-07T18:34:50.105Z,15.48
2022-12-07T18:37:17.922Z,17.20
2022-12-07T18:39:47.057Z,15.77
2022-12-07T18:42:14.877Z,16.42
2022-12-07T18:44:42.667Z,15.25
2022-12-07T18:49:39.159Z,17.60
2022-12-07T18:52:06.903Z,17.40
2022-12-07T18:54:34.638Z,16.33
2022-12-07T18:59:50.004Z,17.88
2022-12-07T19:02:19.133Z,18.77
2022-12-07T19:04:47.013Z,17.65
2022-12-07T19:09:42.575Z,17.33
2022-12-07T19:12:12.535Z,18.88
2022-12-07T19:14:41.718Z,19.75
2022-12-07T19:17:11.306Z,21.13
2022-12-07T19:19:40.094Z,21.17
2022-12-07T19:22:08.568Z,20.70
2022-12-07T19:24:37.258Z,20.60
2022-12-07T19:27:05.312Z,21.70
2022-12-07T19:29:33.097Z,21.35
2022-12-07T19:32:03.054Z,21.85
2022-12-07T19:34:30.977Z,21.70
2022-12-07T19:36:58.956Z,20.90
2022-12-07T19:39:26.696Z,21.35
2022-12-07T19:44:25.374Z,22.38
2022-12-07T19:46:57.329Z,21.77
2022-12-07T19:49:31.428Z,22.50
2022-12-07T19:52:00.461Z,22.25
2022-12-07T19:54:29.176Z,20.77
2022-12-07T19:56:58.234Z,20.75
2022-12-07T19:59:27.230Z,21.42
2022-12-07T20:01:55.158Z,23.08
2022-12-07T20:04:23.494Z,21.13
2022-12-07T20:06:53.605Z,22.27
2022-12-07T20:09:21.774Z,21.65
2022-12-07T20:12:07.145Z,22.48
2022-12-07T20:14:35.074Z,20.95
2022-12-07T20:17:03.322Z,20.25
2022-12-07T20:19:31.416Z,20.63
2022-12-07T20:22:00.572Z,19.92
2022-12-07T20:24:28.534Z,21.10
2022-12-07T20:26:56.348Z,20.08
2022-12-07T20:29:25.193Z,20.98
2022-12-07T20:31:54.037Z,21.08
2022-12-07T20:34:22.309Z,22.90
2022-12-07T20:36:50.298Z,22.08
2022-12-07T20:39:19.525Z,23.63
2022-12-07T20:42:04.864Z,22.48
2022-12-07T20:44:32.824Z,22.08
2022-12-07T20:47:00.673Z,23.50
2022-12-07T20:49:28.584Z,23.73
2022-12-07T20:51:56.383Z,20.95
2022-12-07T20:54:25.503Z,22.73
2022-12-07T20:56:53.333Z,21.55
2022-12-07T21:01:48.741Z,20.63
2022-12-07T21:04:18.179Z,21.10
2022-12-07T21:06:45.945Z,22.58
2022-12-07T21:09:13.922Z,22.90
2022-12-07T21:11:43.075Z,22.17
2022-12-07T21:14:10.879Z,25.05
2022-12-07T21:16:38.608Z,23.73
2022-12-07T21:19:06.414Z,24.33
2022-12-07T21:21:34.543Z,23.00
2022-12-07T21:24:03.625Z,23.88
2022-12-07T21:26:33.871Z,24.20
2022-12-07T21:29:03.520Z,24.38
2022-12-07T21:31:31.496Z,24.15
2022-12-07T21:33:59.279Z,23.10
2022-12-07T21:36:27.328Z,24.85
2022-12-07T21:38:55.111Z,24.50
2022-12-07T21:41:23.577Z,22.58
2022-12-07T21:43:51.734Z,22.92
2022-12-07T21:46:21.521Z,22.10
2022-12-07T21:48:52.614Z,22.98
2022-12-07T21:51:21.167Z,22.08
2022-12-07T21:53:49.345Z,21.73
2022-12-07T21:56:17.823Z,23.58
2022-12-07T21:58:45.940Z,21.73
2022-12-07T22:01:18.062Z,21.23
2022-12-07T22:03:48.029Z,21.13
2022-12-07T22:06:16.112Z,24.13
2022-12-07T22:08:43.862Z,25.88
2022-12-07T22:11:13.874Z,26.98
2022-12-07T22:14:00.061Z,26.20
2022-12-07T22:16:28.314Z,24.25
2022-12-07T22:18:57.581Z,23.80
2022-12-07T22:21:25.625Z,23.27
2022-12-07T22:23:53.666Z,24.88
2022-12-07T22:26:24.494Z,24.00
2022-12-07T22:28:52.771Z,22.98
2022-12-07T22:31:21.738Z,23.90
2022-12-07T22:33:49.984Z,27.35
2022-12-07T22:36:19.394Z,25.00
2022-12-07T22:38:47.336Z,22.63
2022-12-07T22:41:18.035Z,22.63
2022-12-07T22:43:45.852Z,25.42
2022-12-07T22:46:13.617Z,22.42
2022-12-07T22:48:41.562Z,23.55
2022-12-07T22:51:19.094Z,25.08
2022-12-07T22:53:48.325Z,22.90
2022-12-07T22:56:16.175Z,23.67
2022-12-07T22:58:43.900Z,22.65
2022-12-07T23:03:39.428Z,25.50
2022-12-07T23:06:07.983Z,37.95
2022-12-07T23:08:35.945Z,26.90
2022-12-07T23:11:05.318Z,25.77
2022-12-07T23:13:32.136Z,25.67
2022-12-07T23:16:00.143Z,26.27
2022-12-07T23:18:28.240Z,25.30
2022-12-07T23:20:56.973Z,26.65
2022-12-07T23:23:24.988Z,26.15
2022-12-07T23:25:52.854Z,24.92
2022-12-07T23:28:22.100Z,25.23
2022-12-07T23:30:49.982Z,26.52
2022-12-07T23:33:17.911Z,23.67
2022-12-07T23:35:45.637Z,25.58
2022-12-07T23:40:41.078Z,22.20
2022-12-07T23:43:08.895Z,23.17
2022-12-07T23:45:38.193Z,24.30
2022-12-07T23:48:06.601Z,23.83
2022-12-07T23:50:34.888Z,21.73
2022-12-07T23:53:02.602Z,22.90
2022-12-07T23:57:57.947Z,21.38
